Crowley, Louisiana
Current Conditions -  °F | °C
As of 8:55 AM on Thursday 30 Oct 2014 (Local Time) from K3R7 Reporting Station
Clear Clear  
Wind Chill: 57°   Ceiling: Unl
Heat Index: 57°   Visibility: 10mi
Dew Point: 48°   Wind: 6mph
Humidity: 72%   Direction: 40°NE
Pressure: 30.14"   Gusts: NA
Location:  30.21°N, 92.37°W
Report Text: K3R7 301355Z AUTO 04005KT 10SM CLR 14/09 A3014 RMK AO2 T01390090
Loading
Personal Weather Stations






























Interactive Weather Map
Tropical Storm Tracking
New forecast layout! Learn more

10-Day Weather Forecast

Advertisements
Track Severe Weather on mobile